Capulin, New Mexico
Current Conditions -  °F | °C
As of 3:53 PM on Wednesday 22 Oct 2014 (Local Time) from KRTN Reporting Station
Broken Clouds Broken Clouds  
Wind Chill: 71°   Ceiling: 10000
Heat Index: 71°   Visibility: 10mi
Dew Point: 32°   Wind: 7mph
Humidity: 24%   Direction: 210°SSW
Pressure: 30.1"   Gusts: NA
Location:  36.74°N, 103.99°W
Report Text: KRTN 222153Z AUTO 21006KT 10SM BKN100 22/00 A3010 RMK AO2 SLP119 T02170000
Loading
Personal Weather Stations






























Interactive Weather Map
Tropical Storm Tracking
New forecast layout! Learn more

10-Day Weather Forecast

Advertisements
Track Severe Weather on mobile